Time;durP1;ratioP1;P1;durP2;ratioP2;P2;SDS_P1;SDS_P2;PMS_P1;PMS_P2;Temp;Humidity;BMP_temperature;BMP_pressure;BME280_temperature;BME280_humidity;BME280_pressure;Samples;Min_cycle;Max_cycle;Signal;HPM_P1;HPM_P2
2021/06/05 19:31:33;;;;;;;6.87;3.50;;;17.00;99.90;;;;;;4246360;23;20223;-70
2021/06/05 19:34:01;;;;;;;6.17;3.57;;;16.90;99.90;;;;;;4953749;29;20298;-70
2021/06/05 19:36:31;;;;;;;7.40;3.43;;;16.70;99.90;;;;;;4945840;29;20592;-70
2021/06/05 19:38:59;;;;;;;4.90;3.50;;;16.80;99.90;;;;;;4932658;29;20224;-70
2021/06/05 19:41:27;;;;;;;7.53;3.50;;;16.80;99.90;;;;;;4926855;29;20232;-70
2021/06/05 19:43:55;;;;;;;7.33;4.00;;;16.70;99.90;;;;;;4925183;29;20226;-70
2021/06/05 19:46:23;;;;;;;11.97;4.00;;;16.70;99.90;;;;;;4930951;29;20260;-70
2021/06/05 19:48:51;;;;;;;8.27;3.90;;;16.60;99.90;;;;;;4936049;29;20583;-70
2021/06/05 19:51:21;;;;;;;11.10;4.17;;;16.60;99.90;;;;;;4934844;29;20420;-70
2021/06/05 19:53:47;;;;;;;7.07;3.73;;;16.50;99.90;;;;;;4933523;29;20205;-70
2021/06/05 19:56:14;;;;;;;9.50;4.47;;;16.60;99.90;;;;;;4933930;29;20213;-70
2021/06/05 19:58:42;;;;;;;7.83;4.33;;;16.50;99.90;;;;;;4934161;29;20232;-71
2021/06/05 20:01:17;;;;;;;7.63;4.70;;;16.60;99.90;;;;;;4934821;29;20268;-70
2021/06/05 20:03:43;;;;;;;5.90;3.83;;;16.60;99.90;;;;;;4936106;29;20259;-70
2021/06/05 20:06:11;;;;;;;9.37;3.97;;;16.50;99.90;;;;;;4936131;29;20217;-69
2021/06/05 20:08:38;;;;;;;6.20;3.57;;;16.50;99.90;;;;;;4936006;29;20699;-70
2021/06/05 20:11:08;;;;;;;6.33;3.27;;;16.50;99.90;;;;;;4936122;29;20664;-70
2021/06/05 20:13:34;;;;;;;6.20;3.90;;;16.50;99.90;;;;;;4936210;29;20218;-71
2021/06/05 20:16:05;;;;;;;5.23;3.40;;;16.50;99.90;;;;;;4935964;29;20359;-70
2021/06/05 20:18:31;;;;;;;5.83;3.67;;;16.50;99.90;;;;;;4935734;29;20287;-70
2021/06/05 20:21:00;;;;;;;6.50;3.67;;;16.50;99.90;;;;;;4936084;29;20239;-70
2021/06/05 20:23:31;;;;;;;6.53;3.87;;;16.40;99.90;;;;;;4936217;29;20291;-70
2021/06/05 20:25:57;;;;;;;7.10;3.60;;;16.40;99.90;;;;;;4936180;29;20242;-70
2021/06/05 20:28:24;;;;;;;4.67;3.30;;;16.40;99.90;;;;;;4936297;29;20280;-70
2021/06/05 20:30:50;;;;;;;5.93;3.53;;;16.50;99.90;;;;;;4935911;29;20217;-70
2021/06/05 20:33:17;;;;;;;5.80;3.50;;;16.50;99.90;;;;;;4935839;29;20228;-70
2021/06/05 20:35:44;;;;;;;4.73;3.17;;;16.50;99.90;;;;;;4935576;29;20264;-71
2021/06/05 20:38:11;;;;;;;6.47;3.13;;;16.40;99.90;;;;;;4935769;29;20229;-70
2021/06/05 20:40:39;;;;;;;5.17;3.40;;;16.40;99.90;;;;;;4936717;29;20205;-71
2021/06/05 20:43:07;;;;;;;5.30;3.27;;;16.40;99.90;;;;;;4939329;29;20660;-70
2021/06/05 20:45:36;;;;;;;6.00;3.50;;;16.40;99.90;;;;;;4940452;29;20211;-71
2021/06/05 20:48:03;;;;;;;6.13;3.13;;;16.40;99.90;;;;;;4939761;29;20229;-71
2021/06/05 20:50:34;;;;;;;9.03;3.30;;;16.40;99.90;;;;;;4940058;29;20257;-71
2021/06/05 20:53:00;;;;;;;5.73;3.10;;;16.20;99.90;;;;;;4939711;29;20204;-70
2021/06/05 20:55:27;;;;;;;7.03;2.93;;;16.30;99.90;;;;;;4939649;29;20208;-71
2021/06/05 20:57:55;;;;;;;6.03;3.17;;;16.20;99.90;;;;;;4939376;29;20283;-71
2021/06/05 21:00:33;;;;;;;4.67;2.67;;;16.20;99.90;;;;;;4939262;29;20260;-70
2021/06/05 21:03:03;;;;;;;4.37;3.20;;;16.10;99.90;;;;;;4939263;29;20218;-71
2021/06/05 21:05:29;;;;;;;5.53;3.07;;;16.10;99.90;;;;;;4939376;29;20201;-71
2021/06/05 21:07:56;;;;;;;5.53;3.00;;;16.10;99.90;;;;;;4939464;29;20225;-70
2021/06/05 21:10:22;;;;;;;3.60;2.63;;;16.00;99.90;;;;;;4939299;29;20213;-71
2021/06/05 21:12:49;;;;;;;5.20;3.10;;;16.00;99.90;;;;;;4939216;29;20244;-71
2021/06/05 21:15:20;;;;;;;6.53;2.73;;;15.90;99.90;;;;;;4939013;29;20680;-71
2021/06/05 21:17:46;;;;;;;7.07;2.87;;;15.90;99.90;;;;;;4939017;29;20220;-71
2021/06/05 21:20:14;;;;;;;4.57;3.17;;;16.00;99.90;;;;;;4938968;29;20731;-71
